Bremerton, WA (98312)

09:13 AM PST del 16 Gennaio 2017 (GMT -0800)
SW Kitsap Lake | | Change Station

Alt. 159 ft 47.57 °N, 122.71 °W | Updated 12 minutes ago

Parzialmente nuvoloso
Parzialmente nuvoloso
30.7 °F
Sembra 31 °F
N
0.0
Vento Variabile Vento da SSE
Gusts 0.0 mph

Oggi
Massima -- | Minima -- °F
--% Possibilità di precip.
Ieri
Massima -- | Minima -- °F
Precip. -- in
Pressione 30.20 in
Visibilità 10.0 miglia
Nuvole Alcuni 16000 ft
Raffreddamento del vento 31 °F
Punto di rugiada 28 °F
Umidità 90%
Piovosità 0.00 in
Spessore del manto nevoso Non disponibile.
7:53 AM 4:48 PM
Gobba a levante, 80% visible
METAR KBFI 161653Z 00000KT 10SM FEW160 01/M02 A3020 RMK AO2 SLP227 T00061022 $
Pressione 30.20 in
Visibilità 10.0 miglia
Nuvole Alcuni 16000 ft
Raffreddamento del vento 31 °F
Punto di rugiada 28 °F
Umidità 90%
Piovosità 0.00 in
Spessore del manto nevoso Non disponibile.
7:53 AM 4:48 PM
Gobba a levante, 80% visible
METAR KBFI 161653Z 00000KT 10SM FEW160 01/M02 A3020 RMK AO2 SLP227 T00061022 $

Get Your Daily Forecast Email!

Thanks for signing up!

Be on the lookout for a verification email in your inbox.

You'll start receiving the daily forecast at 8 AM.

×

10-Day Weather Forecast

Almanac

Astronomia

Jan. 16, 2017 Alba Tramonto
Ora attuale
Crepuscolo civile
Crepuscolo nautico
Crepuscolo astronomico
Luna
Estensione della luce visibile
Lunghezza del giorno
Tomorrow will be .
, % of the Moon is Illuminated

Gli estremi di oggi

State Highs State Lows

Community

WunderPhotos

Upload Photos

1,962,540 foto caricate!

WunderBlog® & News

Nearby

Qualità dell'aria

  Qualità dell'aria Indice AQ Inquinante
Not available.

Profondità neve

Stazione Profondità Altitudine

Attività sismica

Città  Distanza Mag. Data & Ora
Minimo Magnitudo Mostrato è 2.5.

Temperature delle acque costiere

Località Temperatura

Stations

Stazioni meteo nelle vicinanze

Ubicazione della stazione Temp. Raffreddamento del vento Punto di rugiada Umidità Vento Precip. Alt. Aggiornato Tipo
                   

Watches & Warnings

There are currently no watches in effect.